<?xml version='1.0' encoding='UTF-8'?>
<gpx version="1.1" creator="https://www.komoot.de" xmlns="http://www.topografix.com/GPX/1/1" xmlns:xsi="http://www.w3.org/2001/XMLSchema-instance" xsi:schemaLocation="http://www.topografix.com/GPX/1/1 http://www.topografix.com/GPX/1/1/gpx.xsd">
  <metadata>
    <name>PW DVV Guldental kurz</name>
    <author>
      <link href="https://www.komoot.de">
        <text>komoot</text>
        <type>text/html</type>
      </link>
    </author>
  </metadata>
  <trk>
    <name>PW DVV Guldental kurz</name>
    <trkseg>
      <trkpt lat="49.897445" lon="7.836790">
        <ele>195.827677</ele>
        <time>2022-02-08T06:41:29.371Z</time>
      </trkpt>
      <trkpt lat="49.897179" lon="7.836785">
        <ele>195.827677</ele>
        <time>2022-02-08T06:41:50.675Z</time>
      </trkpt>
      <trkpt lat="49.897087" lon="7.836827">
        <ele>195.827677</ele>
        <time>2022-02-08T06:41:57.726Z</time>
      </trkpt>
      <trkpt lat="49.896997" lon="7.836846">
        <ele>195.827677</ele>
        <time>2022-02-08T06:42:05.669Z</time>
      </trkpt>
      <trkpt lat="49.896903" lon="7.836841">
        <ele>195.827677</ele>
        <time>2022-02-08T06:42:10.665Z</time>
      </trkpt>
      <trkpt lat="49.896861" lon="7.836979">
        <ele>195.827677</ele>
        <time>2022-02-08T06:42:17.661Z</time>
      </trkpt>
      <trkpt lat="49.896791" lon="7.837074">
        <ele>195.827677</ele>
        <time>2022-02-08T06:42:25.649Z</time>
      </trkpt>
      <trkpt lat="49.896687" lon="7.837101">
        <ele>195.827677</ele>
        <time>2022-02-08T06:42:33.646Z</time>
      </trkpt>
      <trkpt lat="49.896590" lon="7.837065">
        <ele>195.751328</ele>
        <time>2022-02-08T06:42:38.671Z</time>
      </trkpt>
      <trkpt lat="49.896503" lon="7.837102">
        <ele>195.594625</ele>
        <time>2022-02-08T06:42:43.650Z</time>
      </trkpt>
      <trkpt lat="49.896430" lon="7.837192">
        <ele>195.432683</ele>
        <time>2022-02-08T06:42:51.674Z</time>
      </trkpt>
      <trkpt lat="49.896352" lon="7.837281">
        <ele>195.264519</ele>
        <time>2022-02-08T06:42:59.657Z</time>
      </trkpt>
      <trkpt lat="49.896258" lon="7.837336">
        <ele>195.090010</ele>
        <time>2022-02-08T06:43:06.671Z</time>
      </trkpt>
      <trkpt lat="49.896172" lon="7.837380">
        <ele>194.932708</ele>
        <time>2022-02-08T06:43:12.670Z</time>
      </trkpt>
      <trkpt lat="49.896091" lon="7.837456">
        <ele>194.768292</ele>
        <time>2022-02-08T06:43:18.649Z</time>
      </trkpt>
      <trkpt lat="49.895999" lon="7.837387">
        <ele>194.590797</ele>
        <time>2022-02-08T06:43:26.674Z</time>
      </trkpt>
      <trkpt lat="49.895969" lon="7.837241">
        <ele>194.419305</ele>
        <time>2022-02-08T06:43:31.688Z</time>
      </trkpt>
      <trkpt lat="49.896002" lon="7.837097">
        <ele>194.248268</ele>
        <time>2022-02-08T06:43:40.654Z</time>
      </trkpt>
      <trkpt lat="49.895974" lon="7.836943">
        <ele>194.069202</ele>
        <time>2022-02-08T06:43:48.664Z</time>
      </trkpt>
      <trkpt lat="49.895936" lon="7.836801">
        <ele>193.897130</ele>
        <time>2022-02-08T06:43:54.662Z</time>
      </trkpt>
      <trkpt lat="49.895906" lon="7.836668">
        <ele>193.739436</ele>
        <time>2022-02-08T06:44:00.657Z</time>
      </trkpt>
      <trkpt lat="49.895902" lon="7.836518">
        <ele>193.571434</ele>
        <time>2022-02-08T06:44:06.658Z</time>
      </trkpt>
      <trkpt lat="49.895862" lon="7.836381">
        <ele>193.403112</ele>
        <time>2022-02-08T06:44:15.653Z</time>
      </trkpt>
      <trkpt lat="49.895839" lon="7.836231">
        <ele>193.230564</ele>
        <time>2022-02-08T06:44:23.662Z</time>
      </trkpt>
      <trkpt lat="49.895831" lon="7.836075">
        <ele>193.055440</ele>
        <time>2022-02-08T06:44:30.671Z</time>
      </trkpt>
      <trkpt lat="49.895808" lon="7.835931">
        <ele>192.889416</ele>
        <time>2022-02-08T06:44:39.654Z</time>
      </trkpt>
      <trkpt lat="49.895789" lon="7.835773">
        <ele>192.709551</ele>
        <time>2022-02-08T06:44:46.676Z</time>
      </trkpt>
      <trkpt lat="49.895761" lon="7.835621">
        <ele>192.958916</ele>
        <time>2022-02-08T06:44:53.660Z</time>
      </trkpt>
      <trkpt lat="49.895736" lon="7.835484">
        <ele>193.198009</ele>
        <time>2022-02-08T06:44:59.670Z</time>
      </trkpt>
      <trkpt lat="49.895707" lon="7.835341">
        <ele>193.449742</ele>
        <time>2022-02-08T06:45:05.646Z</time>
      </trkpt>
      <trkpt lat="49.895700" lon="7.835192">
        <ele>193.700597</ele>
        <time>2022-02-08T06:45:15.675Z</time>
      </trkpt>
      <trkpt lat="49.895689" lon="7.835046">
        <ele>193.947421</ele>
        <time>2022-02-08T06:45:23.672Z</time>
      </trkpt>
      <trkpt lat="49.895648" lon="7.834911">
        <ele>194.198033</ele>
        <time>2022-02-08T06:45:31.649Z</time>
      </trkpt>
      <trkpt lat="49.895642" lon="7.834755">
        <ele>194.460444</ele>
        <time>2022-02-08T06:45:39.661Z</time>
      </trkpt>
      <trkpt lat="49.895594" lon="7.834623">
        <ele>194.714966</ele>
        <time>2022-02-08T06:45:46.674Z</time>
      </trkpt>
      <trkpt lat="49.895554" lon="7.834477">
        <ele>194.981371</ele>
        <time>2022-02-08T06:45:53.664Z</time>
      </trkpt>
      <trkpt lat="49.895545" lon="7.834326">
        <ele>195.236003</ele>
        <time>2022-02-08T06:45:57.656Z</time>
      </trkpt>
      <trkpt lat="49.895556" lon="7.834182">
        <ele>195.479493</ele>
        <time>2022-02-08T06:46:04.658Z</time>
      </trkpt>
      <trkpt lat="49.895582" lon="7.834047">
        <ele>195.716090</ele>
        <time>2022-02-08T06:46:13.666Z</time>
      </trkpt>
      <trkpt lat="49.895615" lon="7.833904">
        <ele>195.971149</ele>
        <time>2022-02-08T06:46:21.662Z</time>
      </trkpt>
      <trkpt lat="49.895713" lon="7.833910">
        <ele>196.226796</ele>
        <time>2022-02-08T06:46:27.673Z</time>
      </trkpt>
      <trkpt lat="49.895808" lon="7.833900">
        <ele>196.474993</ele>
        <time>2022-02-08T06:46:32.654Z</time>
      </trkpt>
      <trkpt lat="49.895902" lon="7.833842">
        <ele>196.738660</ele>
        <time>2022-02-08T06:46:39.663Z</time>
      </trkpt>
      <trkpt lat="49.895981" lon="7.833759">
        <ele>196.987311</ele>
        <time>2022-02-08T06:46:46.656Z</time>
      </trkpt>
      <trkpt lat="49.896052" lon="7.833648">
        <ele>197.249968</ele>
        <time>2022-02-08T06:46:55.666Z</time>
      </trkpt>
      <trkpt lat="49.896131" lon="7.833568">
        <ele>197.534026</ele>
        <time>2022-02-08T06:47:01.660Z</time>
      </trkpt>
      <trkpt lat="49.896215" lon="7.833483">
        <ele>197.891062</ele>
        <time>2022-02-08T06:47:09.647Z</time>
      </trkpt>
      <trkpt lat="49.896315" lon="7.833427">
        <ele>198.269595</ele>
        <time>2022-02-08T06:47:16.662Z</time>
      </trkpt>
      <trkpt lat="49.896408" lon="7.833405">
        <ele>198.604566</ele>
        <time>2022-02-08T06:47:22.657Z</time>
      </trkpt>
      <trkpt lat="49.896515" lon="7.833370">
        <ele>198.993931</ele>
        <time>2022-02-08T06:47:29.655Z</time>
      </trkpt>
      <trkpt lat="49.896610" lon="7.833302">
        <ele>199.366428</ele>
        <time>2022-02-08T06:47:37.651Z</time>
      </trkpt>
      <trkpt lat="49.896673" lon="7.833178">
        <ele>199.728667</ele>
        <time>2022-02-08T06:47:44.642Z</time>
      </trkpt>
      <trkpt lat="49.896742" lon="7.833047">
        <ele>200.116804</ele>
        <time>2022-02-08T06:47:51.674Z</time>
      </trkpt>
      <trkpt lat="49.896795" lon="7.832921">
        <ele>200.461970</ele>
        <time>2022-02-08T06:47:56.669Z</time>
      </trkpt>
      <trkpt lat="49.896744" lon="7.832805">
        <ele>200.784105</ele>
        <time>2022-02-08T06:48:04.663Z</time>
      </trkpt>
      <trkpt lat="49.896723" lon="7.832640">
        <ele>201.169883</ele>
        <time>2022-02-08T06:48:13.658Z</time>
      </trkpt>
      <trkpt lat="49.896669" lon="7.832504">
        <ele>201.536327</ele>
        <time>2022-02-08T06:48:18.676Z</time>
      </trkpt>
      <trkpt lat="49.896613" lon="7.832384">
        <ele>201.876211</ele>
        <time>2022-02-08T06:48:25.673Z</time>
      </trkpt>
      <trkpt lat="49.896553" lon="7.832276">
        <ele>202.203334</ele>
        <time>2022-02-08T06:48:33.668Z</time>
      </trkpt>
      <trkpt lat="49.896495" lon="7.832139">
        <ele>202.579364</ele>
        <time>2022-02-08T06:48:41.678Z</time>
      </trkpt>
      <trkpt lat="49.896441" lon="7.832001">
        <ele>202.949722</ele>
        <time>2022-02-08T06:48:47.678Z</time>
      </trkpt>
      <trkpt lat="49.896406" lon="7.831865">
        <ele>203.285641</ele>
        <time>2022-02-08T06:48:53.665Z</time>
      </trkpt>
      <trkpt lat="49.896325" lon="7.831766">
        <ele>203.652725</ele>
        <time>2022-02-08T06:49:00.667Z</time>
      </trkpt>
      <trkpt lat="49.896246" lon="7.831685">
        <ele>204.167148</ele>
        <time>2022-02-08T06:49:07.677Z</time>
      </trkpt>
      <trkpt lat="49.896190" lon="7.831570">
        <ele>204.800236</ele>
        <time>2022-02-08T06:49:15.655Z</time>
      </trkpt>
      <trkpt lat="49.896142" lon="7.831448">
        <ele>205.428032</ele>
        <time>2022-02-08T06:49:21.675Z</time>
      </trkpt>
      <trkpt lat="49.896077" lon="7.831341">
        <ele>206.073913</ele>
        <time>2022-02-08T06:49:28.649Z</time>
      </trkpt>
      <trkpt lat="49.896005" lon="7.831228">
        <ele>206.771903</ele>
        <time>2022-02-08T06:49:36.675Z</time>
      </trkpt>
      <trkpt lat="49.895929" lon="7.831107">
        <ele>207.514067</ele>
        <time>2022-02-08T06:49:43.673Z</time>
      </trkpt>
      <trkpt lat="49.895831" lon="7.831074">
        <ele>208.197702</ele>
        <time>2022-02-08T06:49:49.670Z</time>
      </trkpt>
      <trkpt lat="49.895750" lon="7.831166">
        <ele>208.881927</ele>
        <time>2022-02-08T06:49:57.664Z</time>
      </trkpt>
      <trkpt lat="49.895662" lon="7.831248">
        <ele>209.581632</ele>
        <time>2022-02-08T06:50:04.659Z</time>
      </trkpt>
      <trkpt lat="49.895579" lon="7.831329">
        <ele>210.249994</ele>
        <time>2022-02-08T06:50:11.650Z</time>
      </trkpt>
      <trkpt lat="49.895501" lon="7.831421">
        <ele>210.917824</ele>
        <time>2022-02-08T06:50:18.656Z</time>
      </trkpt>
      <trkpt lat="49.895415" lon="7.831469">
        <ele>211.540857</ele>
        <time>2022-02-08T06:50:24.681Z</time>
      </trkpt>
      <trkpt lat="49.895328" lon="7.831533">
        <ele>212.197190</ele>
        <time>2022-02-08T06:50:31.661Z</time>
      </trkpt>
      <trkpt lat="49.895239" lon="7.831465">
        <ele>212.873440</ele>
        <time>2022-02-08T06:50:37.673Z</time>
      </trkpt>
      <trkpt lat="49.895187" lon="7.831349">
        <ele>213.494076</ele>
        <time>2022-02-08T06:50:42.674Z</time>
      </trkpt>
      <trkpt lat="49.895127" lon="7.831234">
        <ele>214.143981</ele>
        <time>2022-02-08T06:50:49.673Z</time>
      </trkpt>
      <trkpt lat="49.895063" lon="7.831109">
        <ele>214.845206</ele>
        <time>2022-02-08T06:50:57.651Z</time>
      </trkpt>
      <trkpt lat="49.895014" lon="7.830983">
        <ele>215.491566</ele>
        <time>2022-02-08T06:51:04.677Z</time>
      </trkpt>
      <trkpt lat="49.894923" lon="7.830917">
        <ele>216.181460</ele>
        <time>2022-02-08T06:51:13.663Z</time>
      </trkpt>
      <trkpt lat="49.894838" lon="7.830839">
        <ele>216.883867</ele>
        <time>2022-02-08T06:51:20.658Z</time>
      </trkpt>
      <trkpt lat="49.894762" lon="7.830754">
        <ele>217.550210</ele>
        <time>2022-02-08T06:51:28.666Z</time>
      </trkpt>
      <trkpt lat="49.894663" lon="7.830708">
        <ele>218.285332</ele>
        <time>2022-02-08T06:51:37.675Z</time>
      </trkpt>
      <trkpt lat="49.894561" lon="7.830711">
        <ele>219.011053</ele>
        <time>2022-02-08T06:51:43.679Z</time>
      </trkpt>
      <trkpt lat="49.894467" lon="7.830767">
        <ele>219.727288</ele>
        <time>2022-02-08T06:51:51.680Z</time>
      </trkpt>
      <trkpt lat="49.894378" lon="7.830836">
        <ele>220.434971</ele>
        <time>2022-02-08T06:51:58.676Z</time>
      </trkpt>
      <trkpt lat="49.894289" lon="7.830883">
        <ele>221.103719</ele>
        <time>2022-02-08T06:52:06.672Z</time>
      </trkpt>
      <trkpt lat="49.894197" lon="7.830938">
        <ele>221.805030</ele>
        <time>2022-02-08T06:52:13.665Z</time>
      </trkpt>
      <trkpt lat="49.894113" lon="7.831002">
        <ele>222.470671</ele>
        <time>2022-02-08T06:52:20.665Z</time>
      </trkpt>
      <trkpt lat="49.894018" lon="7.831042">
        <ele>223.170886</ele>
        <time>2022-02-08T06:52:30.672Z</time>
      </trkpt>
      <trkpt lat="49.893938" lon="7.831118">
        <ele>223.838093</ele>
        <time>2022-02-08T06:52:37.681Z</time>
      </trkpt>
      <trkpt lat="49.893848" lon="7.831170">
        <ele>224.521230</ele>
        <time>2022-02-08T06:52:44.668Z</time>
      </trkpt>
      <trkpt lat="49.893760" lon="7.831205">
        <ele>225.167452</ele>
        <time>2022-02-08T06:52:51.665Z</time>
      </trkpt>
      <trkpt lat="49.893673" lon="7.831248">
        <ele>225.816953</ele>
        <time>2022-02-08T06:52:58.665Z</time>
      </trkpt>
      <trkpt lat="49.893585" lon="7.831288">
        <ele>226.469240</ele>
        <time>2022-02-08T06:53:04.656Z</time>
      </trkpt>
      <trkpt lat="49.893487" lon="7.831331">
        <ele>227.193691</ele>
        <time>2022-02-08T06:53:12.678Z</time>
      </trkpt>
      <trkpt lat="49.893393" lon="7.831357">
        <ele>227.872906</ele>
        <time>2022-02-08T06:53:19.670Z</time>
      </trkpt>
      <trkpt lat="49.893296" lon="7.831407">
        <ele>228.599979</ele>
        <time>2022-02-08T06:53:26.656Z</time>
      </trkpt>
      <trkpt lat="49.893198" lon="7.831418">
        <ele>229.248030</ele>
        <time>2022-02-08T06:53:34.662Z</time>
      </trkpt>
      <trkpt lat="49.893096" lon="7.831426">
        <ele>229.891648</ele>
        <time>2022-02-08T06:53:43.677Z</time>
      </trkpt>
      <trkpt lat="49.893001" lon="7.831420">
        <ele>230.490829</ele>
        <time>2022-02-08T06:53:50.667Z</time>
      </trkpt>
      <trkpt lat="49.892907" lon="7.831417">
        <ele>231.083337</ele>
        <time>2022-02-08T06:53:57.669Z</time>
      </trkpt>
      <trkpt lat="49.892813" lon="7.831414">
        <ele>231.675845</ele>
        <time>2022-02-08T06:54:06.660Z</time>
      </trkpt>
      <trkpt lat="49.892713" lon="7.831400">
        <ele>232.308598</ele>
        <time>2022-02-08T06:54:13.675Z</time>
      </trkpt>
      <trkpt lat="49.892616" lon="7.831395">
        <ele>232.920224</ele>
        <time>2022-02-08T06:54:20.678Z</time>
      </trkpt>
      <trkpt lat="49.892516" lon="7.831407">
        <ele>233.552299</ele>
        <time>2022-02-08T06:54:28.678Z</time>
      </trkpt>
      <trkpt lat="49.892425" lon="7.831407">
        <ele>234.125776</ele>
        <time>2022-02-08T06:54:35.661Z</time>
      </trkpt>
      <trkpt lat="49.892322" lon="7.831402">
        <ele>234.775194</ele>
        <time>2022-02-08T06:54:43.663Z</time>
      </trkpt>
      <trkpt lat="49.892224" lon="7.831410">
        <ele>235.393638</ele>
        <time>2022-02-08T06:54:51.676Z</time>
      </trkpt>
      <trkpt lat="49.892121" lon="7.831411">
        <ele>236.042751</ele>
        <time>2022-02-08T06:54:58.679Z</time>
      </trkpt>
      <trkpt lat="49.892035" lon="7.831468">
        <ele>236.632057</ele>
        <time>2022-02-08T06:55:06.667Z</time>
      </trkpt>
      <trkpt lat="49.891976" lon="7.831580">
        <ele>237.219430</ele>
        <time>2022-02-08T06:55:12.674Z</time>
      </trkpt>
      <trkpt lat="49.891918" lon="7.831711">
        <ele>237.864769</ele>
        <time>2022-02-08T06:55:19.682Z</time>
      </trkpt>
      <trkpt lat="49.891853" lon="7.831824">
        <ele>238.479801</ele>
        <time>2022-02-08T06:55:26.673Z</time>
      </trkpt>
      <trkpt lat="49.891795" lon="7.831951">
        <ele>239.111824</ele>
        <time>2022-02-08T06:55:33.672Z</time>
      </trkpt>
      <trkpt lat="49.891721" lon="7.832049">
        <ele>239.724833</ele>
        <time>2022-02-08T06:55:40.680Z</time>
      </trkpt>
      <trkpt lat="49.891661" lon="7.832165">
        <ele>240.224442</ele>
        <time>2022-02-08T06:55:47.663Z</time>
      </trkpt>
      <trkpt lat="49.891605" lon="7.832280">
        <ele>240.376693</ele>
        <time>2022-02-08T06:55:54.676Z</time>
      </trkpt>
      <trkpt lat="49.891538" lon="7.832406">
        <ele>240.549244</ele>
        <time>2022-02-08T06:56:01.691Z</time>
      </trkpt>
      <trkpt lat="49.891472" lon="7.832518">
        <ele>240.709555</ele>
        <time>2022-02-08T06:56:08.664Z</time>
      </trkpt>
      <trkpt lat="49.891410" lon="7.832630">
        <ele>240.865515</ele>
        <time>2022-02-08T06:56:14.672Z</time>
      </trkpt>
      <trkpt lat="49.891353" lon="7.832738">
        <ele>241.012969</ele>
        <time>2022-02-08T06:56:21.684Z</time>
      </trkpt>
      <trkpt lat="49.891285" lon="7.832837">
        <ele>241.165810</ele>
        <time>2022-02-08T06:56:28.665Z</time>
      </trkpt>
      <trkpt lat="49.891203" lon="7.832927">
        <ele>241.330451</ele>
        <time>2022-02-08T06:56:36.667Z</time>
      </trkpt>
      <trkpt lat="49.891143" lon="7.833054">
        <ele>241.496785</ele>
        <time>2022-02-08T06:56:43.664Z</time>
      </trkpt>
      <trkpt lat="49.891075" lon="7.833150">
        <ele>241.647476</ele>
        <time>2022-02-08T06:56:50.674Z</time>
      </trkpt>
      <trkpt lat="49.890991" lon="7.833248">
        <ele>241.819746</ele>
        <time>2022-02-08T06:56:57.664Z</time>
      </trkpt>
      <trkpt lat="49.890922" lon="7.833343">
        <ele>241.970951</ele>
        <time>2022-02-08T06:57:03.675Z</time>
      </trkpt>
      <trkpt lat="49.890846" lon="7.833447">
        <ele>242.137050</ele>
        <time>2022-02-08T06:57:09.670Z</time>
      </trkpt>
      <trkpt lat="49.890777" lon="7.833563">
        <ele>242.303800</ele>
        <time>2022-02-08T06:57:16.664Z</time>
      </trkpt>
      <trkpt lat="49.890696" lon="7.833660">
        <ele>242.471518</ele>
        <time>2022-02-08T06:57:24.653Z</time>
      </trkpt>
      <trkpt lat="49.890621" lon="7.833741">
        <ele>242.621306</ele>
        <time>2022-02-08T06:57:31.682Z</time>
      </trkpt>
      <trkpt lat="49.890540" lon="7.833824">
        <ele>242.780423</ele>
        <time>2022-02-08T06:57:38.664Z</time>
      </trkpt>
      <trkpt lat="49.890459" lon="7.833902">
        <ele>242.936692</ele>
        <time>2022-02-08T06:57:45.681Z</time>
      </trkpt>
      <trkpt lat="49.890370" lon="7.833991">
        <ele>243.110256</ele>
        <time>2022-02-08T06:57:51.672Z</time>
      </trkpt>
      <trkpt lat="49.890285" lon="7.834050">
        <ele>243.293134</ele>
        <time>2022-02-08T06:57:58.680Z</time>
      </trkpt>
      <trkpt lat="49.890202" lon="7.834104">
        <ele>243.475940</ele>
        <time>2022-02-08T06:58:04.662Z</time>
      </trkpt>
      <trkpt lat="49.890118" lon="7.834184">
        <ele>243.676124</ele>
        <time>2022-02-08T06:58:11.683Z</time>
      </trkpt>
      <trkpt lat="49.890041" lon="7.834276">
        <ele>243.873503</ele>
        <time>2022-02-08T06:58:19.676Z</time>
      </trkpt>
      <trkpt lat="49.889964" lon="7.834384">
        <ele>244.084308</ele>
        <time>2022-02-08T06:58:27.675Z</time>
      </trkpt>
      <trkpt lat="49.889892" lon="7.834486">
        <ele>244.282315</ele>
        <time>2022-02-08T06:58:35.662Z</time>
      </trkpt>
      <trkpt lat="49.889837" lon="7.834597">
        <ele>244.465569</ele>
        <time>2022-02-08T06:58:43.670Z</time>
      </trkpt>
      <trkpt lat="49.889771" lon="7.834694">
        <ele>244.650195</ele>
        <time>2022-02-08T06:58:50.666Z</time>
      </trkpt>
      <trkpt lat="49.889702" lon="7.834794">
        <ele>244.841950</ele>
        <time>2022-02-08T06:58:56.676Z</time>
      </trkpt>
      <trkpt lat="49.889639" lon="7.834914">
        <ele>245.044527</ele>
        <time>2022-02-08T06:59:02.679Z</time>
      </trkpt>
      <trkpt lat="49.889596" lon="7.835058">
        <ele>245.252233</ele>
        <time>2022-02-08T06:59:09.644Z</time>
      </trkpt>
      <trkpt lat="49.889559" lon="7.835197">
        <ele>245.449052</ele>
        <time>2022-02-08T06:59:17.672Z</time>
      </trkpt>
      <trkpt lat="49.889475" lon="7.835271">
        <ele>245.645245</ele>
        <time>2022-02-08T06:59:24.663Z</time>
      </trkpt>
      <trkpt lat="49.889388" lon="7.835229">
        <ele>245.830315</ele>
        <time>2022-02-08T06:59:31.684Z</time>
      </trkpt>
      <trkpt lat="49.889293" lon="7.835174">
        <ele>246.036271</ele>
        <time>2022-02-08T06:59:39.661Z</time>
      </trkpt>
      <trkpt lat="49.889208" lon="7.835130">
        <ele>246.218277</ele>
        <time>2022-02-08T06:59:46.672Z</time>
      </trkpt>
      <trkpt lat="49.889113" lon="7.835079">
        <ele>246.422463</ele>
        <time>2022-02-08T06:59:54.675Z</time>
      </trkpt>
      <trkpt lat="49.889012" lon="7.835061">
        <ele>246.628968</ele>
        <time>2022-02-08T07:00:02.674Z</time>
      </trkpt>
      <trkpt lat="49.888928" lon="7.835118">
        <ele>246.782052</ele>
        <time>2022-02-08T07:00:08.668Z</time>
      </trkpt>
      <trkpt lat="49.888839" lon="7.835183">
        <ele>246.719585</ele>
        <time>2022-02-08T07:00:14.672Z</time>
      </trkpt>
      <trkpt lat="49.888763" lon="7.835280">
        <ele>246.657096</ele>
        <time>2022-02-08T07:00:20.672Z</time>
      </trkpt>
      <trkpt lat="49.888716" lon="7.835402">
        <ele>246.598933</ele>
        <time>2022-02-08T07:00:28.678Z</time>
      </trkpt>
      <trkpt lat="49.888675" lon="7.835528">
        <ele>246.541176</ele>
        <time>2022-02-08T07:00:36.674Z</time>
      </trkpt>
      <trkpt lat="49.888651" lon="7.835669">
        <ele>246.481503</ele>
        <time>2022-02-08T07:00:44.666Z</time>
      </trkpt>
      <trkpt lat="49.888616" lon="7.835826">
        <ele>246.413526</ele>
        <time>2022-02-08T07:00:51.670Z</time>
      </trkpt>
      <trkpt lat="49.888567" lon="7.835958">
        <ele>246.351192</ele>
        <time>2022-02-08T07:00:57.669Z</time>
      </trkpt>
      <trkpt lat="49.888511" lon="7.836083">
        <ele>246.288896</ele>
        <time>2022-02-08T07:01:03.673Z</time>
      </trkpt>
      <trkpt lat="49.888437" lon="7.836185">
        <ele>246.226043</ele>
        <time>2022-02-08T07:01:12.678Z</time>
      </trkpt>
      <trkpt lat="49.888356" lon="7.836249">
        <ele>246.168319</ele>
        <time>2022-02-08T07:01:19.666Z</time>
      </trkpt>
      <trkpt lat="49.888279" lon="7.836323">
        <ele>246.110802</ele>
        <time>2022-02-08T07:01:25.670Z</time>
      </trkpt>
      <trkpt lat="49.888196" lon="7.836389">
        <ele>246.051575</ele>
        <time>2022-02-08T07:01:32.666Z</time>
      </trkpt>
      <trkpt lat="49.888113" lon="7.836480">
        <ele>245.987038</ele>
        <time>2022-02-08T07:01:39.671Z</time>
      </trkpt>
      <trkpt lat="49.888061" lon="7.836614">
        <ele>245.923031</ele>
        <time>2022-02-08T07:01:46.682Z</time>
      </trkpt>
      <trkpt lat="49.887998" lon="7.836738">
        <ele>245.858416</ele>
        <time>2022-02-08T07:01:54.662Z</time>
      </trkpt>
      <trkpt lat="49.887941" lon="7.836852">
        <ele>245.799371</ele>
        <time>2022-02-08T07:02:01.674Z</time>
      </trkpt>
      <trkpt lat="49.887913" lon="7.837004">
        <ele>245.734684</ele>
        <time>2022-02-08T07:02:08.655Z</time>
      </trkpt>
      <trkpt lat="49.887863" lon="7.837132">
        <ele>245.673435</ele>
        <time>2022-02-08T07:02:15.659Z</time>
      </trkpt>
      <trkpt lat="49.887780" lon="7.837211">
        <ele>245.847995</ele>
        <time>2022-02-08T07:02:22.664Z</time>
      </trkpt>
      <trkpt lat="49.887688" lon="7.837249">
        <ele>246.184002</ele>
        <time>2022-02-08T07:02:30.666Z</time>
      </trkpt>
      <trkpt lat="49.887591" lon="7.837290">
        <ele>246.538822</ele>
        <time>2022-02-08T07:02:38.664Z</time>
      </trkpt>
      <trkpt lat="49.887501" lon="7.837306">
        <ele>246.858546</ele>
        <time>2022-02-08T07:02:44.677Z</time>
      </trkpt>
      <trkpt lat="49.887414" lon="7.837358">
        <ele>247.187586</ele>
        <time>2022-02-08T07:02:50.679Z</time>
      </trkpt>
      <trkpt lat="49.887370" lon="7.837483">
        <ele>247.511488</ele>
        <time>2022-02-08T07:02:56.676Z</time>
      </trkpt>
      <trkpt lat="49.887346" lon="7.837638">
        <ele>247.873990</ele>
        <time>2022-02-08T07:03:03.673Z</time>
      </trkpt>
      <trkpt lat="49.887313" lon="7.837781">
        <ele>248.219397</ele>
        <time>2022-02-08T07:03:10.672Z</time>
      </trkpt>
      <trkpt lat="49.887258" lon="7.837915">
        <ele>248.580689</ele>
        <time>2022-02-08T07:03:18.672Z</time>
      </trkpt>
      <trkpt lat="49.887192" lon="7.838020">
        <ele>248.914263</ele>
        <time>2022-02-08T07:03:24.663Z</time>
      </trkpt>
      <trkpt lat="49.887119" lon="7.838132">
        <ele>249.276543</ele>
        <time>2022-02-08T07:03:31.672Z</time>
      </trkpt>
      <trkpt lat="49.887056" lon="7.838233">
        <ele>249.596216</ele>
        <time>2022-02-08T07:03:37.666Z</time>
      </trkpt>
      <trkpt lat="49.887002" lon="7.838353">
        <ele>249.929062</ele>
        <time>2022-02-08T07:03:44.671Z</time>
      </trkpt>
      <trkpt lat="49.886917" lon="7.838434">
        <ele>250.281095</ele>
        <time>2022-02-08T07:03:53.679Z</time>
      </trkpt>
      <trkpt lat="49.886836" lon="7.838522">
        <ele>250.630055</ele>
        <time>2022-02-08T07:04:00.644Z</time>
      </trkpt>
      <trkpt lat="49.886759" lon="7.838614">
        <ele>250.973019</ele>
        <time>2022-02-08T07:04:08.679Z</time>
      </trkpt>
      <trkpt lat="49.886680" lon="7.838684">
        <ele>251.294081</ele>
        <time>2022-02-08T07:04:16.671Z</time>
      </trkpt>
      <trkpt lat="49.886584" lon="7.838714">
        <ele>251.639704</ele>
        <time>2022-02-08T07:04:25.669Z</time>
      </trkpt>
      <trkpt lat="49.886494" lon="7.838702">
        <ele>251.958521</ele>
        <time>2022-02-08T07:04:31.669Z</time>
      </trkpt>
      <trkpt lat="49.886397" lon="7.838695">
        <ele>251.822460</ele>
        <time>2022-02-08T07:04:39.656Z</time>
      </trkpt>
      <trkpt lat="49.886302" lon="7.838730">
        <ele>251.626886</ele>
        <time>2022-02-08T07:04:46.674Z</time>
      </trkpt>
      <trkpt lat="49.886214" lon="7.838791">
        <ele>251.433839</ele>
        <time>2022-02-08T07:04:53.666Z</time>
      </trkpt>
      <trkpt lat="49.886203" lon="7.838939">
        <ele>251.241570</ele>
        <time>2022-02-08T07:05:03.678Z</time>
      </trkpt>
      <trkpt lat="49.886193" lon="7.839090">
        <ele>251.045668</ele>
        <time>2022-02-08T07:05:11.682Z</time>
      </trkpt>
      <trkpt lat="49.886168" lon="7.839245">
        <ele>250.839459</ele>
        <time>2022-02-08T07:05:17.661Z</time>
      </trkpt>
      <trkpt lat="49.886168" lon="7.839397">
        <ele>250.643294</ele>
        <time>2022-02-08T07:05:25.675Z</time>
      </trkpt>
      <trkpt lat="49.886178" lon="7.839559">
        <ele>250.433265</ele>
        <time>2022-02-08T07:05:32.667Z</time>
      </trkpt>
      <trkpt lat="49.886203" lon="7.839704">
        <ele>250.239550</ele>
        <time>2022-02-08T07:05:40.680Z</time>
      </trkpt>
      <trkpt lat="49.886218" lon="7.839850">
        <ele>250.048748</ele>
        <time>2022-02-08T07:05:48.666Z</time>
      </trkpt>
      <trkpt lat="49.886222" lon="7.839999">
        <ele>249.856287</ele>
        <time>2022-02-08T07:05:57.673Z</time>
      </trkpt>
      <trkpt lat="49.886240" lon="7.840152">
        <ele>249.655567</ele>
        <time>2022-02-08T07:06:05.724Z</time>
      </trkpt>
      <trkpt lat="49.886266" lon="7.840291">
        <ele>249.468773</ele>
        <time>2022-02-08T07:06:12.682Z</time>
      </trkpt>
      <trkpt lat="49.886311" lon="7.840432">
        <ele>249.265703</ele>
        <time>2022-02-08T07:06:20.664Z</time>
      </trkpt>
      <trkpt lat="49.886359" lon="7.840564">
        <ele>249.070091</ele>
        <time>2022-02-08T07:06:27.673Z</time>
      </trkpt>
      <trkpt lat="49.886387" lon="7.840714">
        <ele>248.868547</ele>
        <time>2022-02-08T07:06:40.669Z</time>
      </trkpt>
      <trkpt lat="49.886411" lon="7.840873">
        <ele>248.657793</ele>
        <time>2022-02-08T07:06:47.678Z</time>
      </trkpt>
      <trkpt lat="49.886376" lon="7.841017">
        <ele>248.459169</ele>
        <time>2022-02-08T07:06:53.669Z</time>
      </trkpt>
      <trkpt lat="49.886311" lon="7.841120">
        <ele>248.325049</ele>
        <time>2022-02-08T07:07:00.681Z</time>
      </trkpt>
      <trkpt lat="49.886215" lon="7.841164">
        <ele>248.211353</ele>
        <time>2022-02-08T07:07:07.660Z</time>
      </trkpt>
      <trkpt lat="49.886115" lon="7.841180">
        <ele>248.097167</ele>
        <time>2022-02-08T07:07:14.671Z</time>
      </trkpt>
      <trkpt lat="49.886018" lon="7.841192">
        <ele>247.986642</ele>
        <time>2022-02-08T07:07:20.664Z</time>
      </trkpt>
      <trkpt lat="49.885920" lon="7.841178">
        <ele>247.874859</ele>
        <time>2022-02-08T07:07:27.667Z</time>
      </trkpt>
      <trkpt lat="49.885829" lon="7.841135">
        <ele>247.766813</ele>
        <time>2022-02-08T07:07:35.674Z</time>
      </trkpt>
      <trkpt lat="49.885739" lon="7.841191">
        <ele>247.656678</ele>
        <time>2022-02-08T07:07:44.668Z</time>
      </trkpt>
      <trkpt lat="49.885705" lon="7.841330">
        <ele>247.547869</ele>
        <time>2022-02-08T07:07:51.686Z</time>
      </trkpt>
      <trkpt lat="49.885649" lon="7.841461">
        <ele>247.432817</ele>
        <time>2022-02-08T07:07:57.675Z</time>
      </trkpt>
      <trkpt lat="49.885610" lon="7.841596">
        <ele>247.324542</ele>
        <time>2022-02-08T07:08:03.669Z</time>
      </trkpt>
      <trkpt lat="49.885549" lon="7.841729">
        <ele>247.205066</ele>
        <time>2022-02-08T07:08:10.672Z</time>
      </trkpt>
      <trkpt lat="49.885514" lon="7.841858">
        <ele>247.102630</ele>
        <time>2022-02-08T07:08:16.676Z</time>
      </trkpt>
      <trkpt lat="49.885465" lon="7.841976">
        <ele>246.999891</ele>
        <time>2022-02-08T07:08:24.678Z</time>
      </trkpt>
      <trkpt lat="49.885413" lon="7.842101">
        <ele>246.891001</ele>
        <time>2022-02-08T07:08:31.697Z</time>
      </trkpt>
      <trkpt lat="49.885366" lon="7.842243">
        <ele>246.774169</ele>
        <time>2022-02-08T07:08:38.674Z</time>
      </trkpt>
      <trkpt lat="49.885334" lon="7.842381">
        <ele>246.666834</ele>
        <time>2022-02-08T07:08:44.666Z</time>
      </trkpt>
      <trkpt lat="49.885290" lon="7.842532">
        <ele>246.545550</ele>
        <time>2022-02-08T07:08:50.674Z</time>
      </trkpt>
      <trkpt lat="49.885270" lon="7.842672">
        <ele>246.440604</ele>
        <time>2022-02-08T07:08:56.662Z</time>
      </trkpt>
      <trkpt lat="49.885245" lon="7.842817">
        <ele>246.243985</ele>
        <time>2022-02-08T07:09:03.673Z</time>
      </trkpt>
      <trkpt lat="49.885209" lon="7.842954">
        <ele>245.650580</ele>
        <time>2022-02-08T07:09:10.669Z</time>
      </trkpt>
      <trkpt lat="49.885196" lon="7.843096">
        <ele>245.075340</ele>
        <time>2022-02-08T07:09:16.662Z</time>
      </trkpt>
      <trkpt lat="49.885178" lon="7.843240">
        <ele>244.487030</ele>
        <time>2022-02-08T07:09:23.674Z</time>
      </trkpt>
      <trkpt lat="49.885151" lon="7.843383">
        <ele>243.889380</ele>
        <time>2022-02-08T07:09:30.674Z</time>
      </trkpt>
      <trkpt lat="49.885112" lon="7.843530">
        <ele>243.251781</ele>
        <time>2022-02-08T07:09:36.686Z</time>
      </trkpt>
      <trkpt lat="49.885071" lon="7.843678">
        <ele>242.605656</ele>
        <time>2022-02-08T07:09:43.669Z</time>
      </trkpt>
      <trkpt lat="49.885146" lon="7.843757">
        <ele>242.041437</ele>
        <time>2022-02-08T07:09:51.674Z</time>
      </trkpt>
      <trkpt lat="49.885237" lon="7.843719">
        <ele>241.454844</ele>
        <time>2022-02-08T07:09:56.690Z</time>
      </trkpt>
      <trkpt lat="49.885331" lon="7.843690">
        <ele>240.858274</ele>
        <time>2022-02-08T07:10:04.669Z</time>
      </trkpt>
      <trkpt lat="49.885430" lon="7.843632">
        <ele>240.199586</ele>
        <time>2022-02-08T07:10:11.676Z</time>
      </trkpt>
      <trkpt lat="49.885515" lon="7.843573">
        <ele>239.619982</ele>
        <time>2022-02-08T07:10:18.673Z</time>
      </trkpt>
      <trkpt lat="49.885591" lon="7.843472">
        <ele>238.997174</ele>
        <time>2022-02-08T07:10:25.668Z</time>
      </trkpt>
      <trkpt lat="49.885626" lon="7.843331">
        <ele>238.391153</ele>
        <time>2022-02-08T07:10:33.672Z</time>
      </trkpt>
      <trkpt lat="49.885621" lon="7.843190">
        <ele>237.824793</ele>
        <time>2022-02-08T07:10:39.672Z</time>
      </trkpt>
      <trkpt lat="49.885615" lon="7.843027">
        <ele>237.169987</ele>
        <time>2022-02-08T07:10:46.674Z</time>
      </trkpt>
      <trkpt lat="49.885633" lon="7.842873">
        <ele>236.542263</ele>
        <time>2022-02-08T07:10:53.684Z</time>
      </trkpt>
      <trkpt lat="49.885652" lon="7.842731">
        <ele>235.960597</ele>
        <time>2022-02-08T07:11:00.678Z</time>
      </trkpt>
      <trkpt lat="49.885700" lon="7.842608">
        <ele>235.383857</ele>
        <time>2022-02-08T07:11:07.663Z</time>
      </trkpt>
      <trkpt lat="49.885769" lon="7.842506">
        <ele>234.755458</ele>
        <time>2022-02-08T07:11:14.670Z</time>
      </trkpt>
      <trkpt lat="49.885836" lon="7.842395">
        <ele>234.086269</ele>
        <time>2022-02-08T07:11:21.673Z</time>
      </trkpt>
      <trkpt lat="49.885928" lon="7.842299">
        <ele>233.329264</ele>
        <time>2022-02-08T07:11:27.675Z</time>
      </trkpt>
      <trkpt lat="49.886007" lon="7.842227">
        <ele>232.703682</ele>
        <time>2022-02-08T07:11:32.675Z</time>
      </trkpt>
      <trkpt lat="49.886093" lon="7.842151">
        <ele>232.027910</ele>
        <time>2022-02-08T07:11:39.674Z</time>
      </trkpt>
      <trkpt lat="49.886161" lon="7.842045">
        <ele>231.369804</ele>
        <time>2022-02-08T07:11:48.673Z</time>
      </trkpt>
      <trkpt lat="49.886246" lon="7.841969">
        <ele>230.699957</ele>
        <time>2022-02-08T07:11:55.682Z</time>
      </trkpt>
      <trkpt lat="49.886333" lon="7.841922">
        <ele>230.070920</ele>
        <time>2022-02-08T07:12:01.682Z</time>
      </trkpt>
      <trkpt lat="49.886420" lon="7.841881">
        <ele>229.450060</ele>
        <time>2022-02-08T07:12:07.678Z</time>
      </trkpt>
      <trkpt lat="49.886511" lon="7.841851">
        <ele>228.814805</ele>
        <time>2022-02-08T07:12:16.676Z</time>
      </trkpt>
      <trkpt lat="49.886603" lon="7.841809">
        <ele>228.159972</ele>
        <time>2022-02-08T07:12:23.664Z</time>
      </trkpt>
      <trkpt lat="49.886696" lon="7.841791">
        <ele>227.520004</ele>
        <time>2022-02-08T07:12:30.662Z</time>
      </trkpt>
      <trkpt lat="49.886788" lon="7.841782">
        <ele>226.890537</ele>
        <time>2022-02-08T07:12:36.668Z</time>
      </trkpt>
      <trkpt lat="49.886878" lon="7.841767">
        <ele>226.272440</ele>
        <time>2022-02-08T07:12:42.678Z</time>
      </trkpt>
      <trkpt lat="49.886976" lon="7.841758">
        <ele>225.602078</ele>
        <time>2022-02-08T07:12:48.672Z</time>
      </trkpt>
      <trkpt lat="49.887062" lon="7.841717">
        <ele>224.987749</ele>
        <time>2022-02-08T07:12:55.659Z</time>
      </trkpt>
      <trkpt lat="49.887147" lon="7.841634">
        <ele>224.302014</ele>
        <time>2022-02-08T07:13:03.668Z</time>
      </trkpt>
      <trkpt lat="49.887230" lon="7.841554">
        <ele>223.634855</ele>
        <time>2022-02-08T07:13:11.684Z</time>
      </trkpt>
      <trkpt lat="49.887307" lon="7.841448">
        <ele>222.932045</ele>
        <time>2022-02-08T07:13:18.666Z</time>
      </trkpt>
      <trkpt lat="49.887374" lon="7.841331">
        <ele>222.175091</ele>
        <time>2022-02-08T07:13:24.678Z</time>
      </trkpt>
      <trkpt lat="49.887395" lon="7.841174">
        <ele>221.393029</ele>
        <time>2022-02-08T07:13:31.674Z</time>
      </trkpt>
      <trkpt lat="49.887434" lon="7.841025">
        <ele>220.608632</ele>
        <time>2022-02-08T07:13:38.683Z</time>
      </trkpt>
      <trkpt lat="49.887476" lon="7.840900">
        <ele>219.921048</ele>
        <time>2022-02-08T07:13:45.666Z</time>
      </trkpt>
      <trkpt lat="49.887514" lon="7.840771">
        <ele>219.229237</ele>
        <time>2022-02-08T07:13:52.679Z</time>
      </trkpt>
      <trkpt lat="49.887551" lon="7.840622">
        <ele>218.450415</ele>
        <time>2022-02-08T07:13:59.681Z</time>
      </trkpt>
      <trkpt lat="49.887599" lon="7.840491">
        <ele>217.715396</ele>
        <time>2022-02-08T07:14:06.669Z</time>
      </trkpt>
      <trkpt lat="49.887670" lon="7.840382">
        <ele>216.959422</ele>
        <time>2022-02-08T07:14:14.673Z</time>
      </trkpt>
      <trkpt lat="49.887747" lon="7.840299">
        <ele>216.249750</ele>
        <time>2022-02-08T07:14:20.658Z</time>
      </trkpt>
      <trkpt lat="49.887817" lon="7.840211">
        <ele>215.567837</ele>
        <time>2022-02-08T07:14:26.681Z</time>
      </trkpt>
      <trkpt lat="49.887901" lon="7.840125">
        <ele>214.806078</ele>
        <time>2022-02-08T07:14:33.676Z</time>
      </trkpt>
      <trkpt lat="49.887981" lon="7.840048">
        <ele>214.093486</ele>
        <time>2022-02-08T07:14:40.676Z</time>
      </trkpt>
      <trkpt lat="49.888066" lon="7.839988">
        <ele>213.386618</ele>
        <time>2022-02-08T07:14:46.668Z</time>
      </trkpt>
      <trkpt lat="49.888154" lon="7.839918">
        <ele>212.638067</ele>
        <time>2022-02-08T07:14:53.664Z</time>
      </trkpt>
      <trkpt lat="49.888238" lon="7.839849">
        <ele>211.918627</ele>
        <time>2022-02-08T07:15:00.669Z</time>
      </trkpt>
      <trkpt lat="49.888333" lon="7.839789">
        <ele>211.142218</ele>
        <time>2022-02-08T07:15:07.673Z</time>
      </trkpt>
      <trkpt lat="49.888425" lon="7.839723">
        <ele>210.374986</ele>
        <time>2022-02-08T07:15:14.673Z</time>
      </trkpt>
      <trkpt lat="49.888507" lon="7.839664">
        <ele>209.690792</ele>
        <time>2022-02-08T07:15:20.672Z</time>
      </trkpt>
      <trkpt lat="49.888601" lon="7.839618">
        <ele>208.912277</ele>
        <time>2022-02-08T07:15:26.666Z</time>
      </trkpt>
      <trkpt lat="49.888689" lon="7.839584">
        <ele>208.154413</ele>
        <time>2022-02-08T07:15:32.675Z</time>
      </trkpt>
      <trkpt lat="49.888781" lon="7.839553">
        <ele>207.367654</ele>
        <time>2022-02-08T07:15:39.674Z</time>
      </trkpt>
      <trkpt lat="49.888877" lon="7.839501">
        <ele>206.517926</ele>
        <time>2022-02-08T07:15:46.668Z</time>
      </trkpt>
      <trkpt lat="49.888975" lon="7.839456">
        <ele>205.663846</ele>
        <time>2022-02-08T07:15:53.674Z</time>
      </trkpt>
      <trkpt lat="49.889070" lon="7.839453">
        <ele>204.869760</ele>
        <time>2022-02-08T07:16:00.666Z</time>
      </trkpt>
      <trkpt lat="49.889062" lon="7.839610">
        <ele>204.021801</ele>
        <time>2022-02-08T07:16:07.682Z</time>
      </trkpt>
      <trkpt lat="49.888999" lon="7.839719">
        <ele>203.233370</ele>
        <time>2022-02-08T07:16:12.679Z</time>
      </trkpt>
      <trkpt lat="49.888934" lon="7.839845">
        <ele>202.364280</ele>
        <time>2022-02-08T07:16:17.677Z</time>
      </trkpt>
      <trkpt lat="49.888877" lon="7.839969">
        <ele>201.544122</ele>
        <time>2022-02-08T07:16:22.674Z</time>
      </trkpt>
      <trkpt lat="49.888841" lon="7.840103">
        <ele>200.762421</ele>
        <time>2022-02-08T07:16:30.670Z</time>
      </trkpt>
      <trkpt lat="49.888807" lon="7.840240">
        <ele>199.971948</ele>
        <time>2022-02-08T07:16:36.682Z</time>
      </trkpt>
      <trkpt lat="49.888752" lon="7.840368">
        <ele>199.143552</ele>
        <time>2022-02-08T07:16:44.664Z</time>
      </trkpt>
      <trkpt lat="49.888710" lon="7.840498">
        <ele>198.360526</ele>
        <time>2022-02-08T07:16:50.665Z</time>
      </trkpt>
      <trkpt lat="49.888777" lon="7.840616">
        <ele>197.513666</ele>
        <time>2022-02-08T07:16:58.672Z</time>
      </trkpt>
      <trkpt lat="49.888873" lon="7.840670">
        <ele>196.660329</ele>
        <time>2022-02-08T07:17:04.678Z</time>
      </trkpt>
      <trkpt lat="49.888947" lon="7.840756">
        <ele>195.887765</ele>
        <time>2022-02-08T07:17:11.661Z</time>
      </trkpt>
      <trkpt lat="49.889016" lon="7.840856">
        <ele>195.098836</ele>
        <time>2022-02-08T07:17:19.674Z</time>
      </trkpt>
      <trkpt lat="49.889107" lon="7.840931">
        <ele>194.237781</ele>
        <time>2022-02-08T07:17:28.669Z</time>
      </trkpt>
      <trkpt lat="49.889195" lon="7.840998">
        <ele>193.985130</ele>
        <time>2022-02-08T07:17:35.682Z</time>
      </trkpt>
      <trkpt lat="49.889273" lon="7.841084">
        <ele>193.747289</ele>
        <time>2022-02-08T07:17:45.680Z</time>
      </trkpt>
      <trkpt lat="49.889356" lon="7.841159">
        <ele>193.508541</ele>
        <time>2022-02-08T07:17:55.677Z</time>
      </trkpt>
      <trkpt lat="49.889428" lon="7.841250">
        <ele>193.277723</ele>
        <time>2022-02-08T07:18:01.688Z</time>
      </trkpt>
      <trkpt lat="49.889502" lon="7.841349">
        <ele>193.034865</ele>
        <time>2022-02-08T07:18:09.670Z</time>
      </trkpt>
      <trkpt lat="49.889577" lon="7.841456">
        <ele>192.781630</ele>
        <time>2022-02-08T07:18:17.677Z</time>
      </trkpt>
      <trkpt lat="49.889621" lon="7.841317">
        <ele>192.533592</ele>
        <time>2022-02-08T07:18:26.664Z</time>
      </trkpt>
      <trkpt lat="49.889657" lon="7.841184">
        <ele>192.302547</ele>
        <time>2022-02-08T07:18:31.676Z</time>
      </trkpt>
      <trkpt lat="49.889685" lon="7.841052">
        <ele>192.079976</ele>
        <time>2022-02-08T07:18:36.672Z</time>
      </trkpt>
      <trkpt lat="49.889735" lon="7.840923">
        <ele>191.838866</ele>
        <time>2022-02-08T07:18:42.671Z</time>
      </trkpt>
      <trkpt lat="49.889778" lon="7.840782">
        <ele>191.589023</ele>
        <time>2022-02-08T07:18:50.669Z</time>
      </trkpt>
      <trkpt lat="49.889819" lon="7.840630">
        <ele>191.325110</ele>
        <time>2022-02-08T07:18:56.673Z</time>
      </trkpt>
      <trkpt lat="49.889863" lon="7.840490">
        <ele>191.075635</ele>
        <time>2022-02-08T07:19:04.676Z</time>
      </trkpt>
      <trkpt lat="49.889908" lon="7.840370">
        <ele>190.853261</ele>
        <time>2022-02-08T07:19:11.672Z</time>
      </trkpt>
      <trkpt lat="49.889943" lon="7.840216">
        <ele>190.591724</ele>
        <time>2022-02-08T07:19:18.675Z</time>
      </trkpt>
      <trkpt lat="49.889999" lon="7.840088">
        <ele>190.343925</ele>
        <time>2022-02-08T07:19:24.677Z</time>
      </trkpt>
      <trkpt lat="49.890078" lon="7.840018">
        <ele>190.117792</ele>
        <time>2022-02-08T07:19:32.665Z</time>
      </trkpt>
      <trkpt lat="49.890172" lon="7.840013">
        <ele>189.883980</ele>
        <time>2022-02-08T07:19:41.679Z</time>
      </trkpt>
      <trkpt lat="49.890231" lon="7.840132">
        <ele>189.681836</ele>
        <time>2022-02-08T07:19:46.672Z</time>
      </trkpt>
      <trkpt lat="49.890281" lon="7.840267">
        <ele>189.519184</ele>
        <time>2022-02-08T07:19:51.682Z</time>
      </trkpt>
      <trkpt lat="49.890330" lon="7.840394">
        <ele>189.364560</ele>
        <time>2022-02-08T07:19:57.659Z</time>
      </trkpt>
      <trkpt lat="49.890382" lon="7.840509">
        <ele>189.217807</ele>
        <time>2022-02-08T07:20:02.672Z</time>
      </trkpt>
      <trkpt lat="49.890445" lon="7.840632">
        <ele>189.053676</ele>
        <time>2022-02-08T07:20:09.659Z</time>
      </trkpt>
      <trkpt lat="49.890472" lon="7.840776">
        <ele>188.897024</ele>
        <time>2022-02-08T07:20:16.678Z</time>
      </trkpt>
      <trkpt lat="49.890497" lon="7.840915">
        <ele>188.746284</ele>
        <time>2022-02-08T07:20:23.679Z</time>
      </trkpt>
      <trkpt lat="49.890505" lon="7.841060">
        <ele>188.594275</ele>
        <time>2022-02-08T07:20:29.673Z</time>
      </trkpt>
      <trkpt lat="49.890595" lon="7.841124">
        <ele>188.433774</ele>
        <time>2022-02-08T07:20:36.670Z</time>
      </trkpt>
      <trkpt lat="49.890689" lon="7.841059">
        <ele>188.266933</ele>
        <time>2022-02-08T07:20:41.680Z</time>
      </trkpt>
      <trkpt lat="49.890751" lon="7.840930">
        <ele>188.098827</ele>
        <time>2022-02-08T07:20:47.678Z</time>
      </trkpt>
      <trkpt lat="49.890807" lon="7.840818">
        <ele>187.950743</ele>
        <time>2022-02-08T07:20:52.685Z</time>
      </trkpt>
      <trkpt lat="49.890890" lon="7.840898">
        <ele>187.792342</ele>
        <time>2022-02-08T07:21:05.666Z</time>
      </trkpt>
      <trkpt lat="49.890953" lon="7.841025">
        <ele>187.624921</ele>
        <time>2022-02-08T07:21:12.678Z</time>
      </trkpt>
      <trkpt lat="49.891001" lon="7.841148">
        <ele>187.474715</ele>
        <time>2022-02-08T07:21:18.689Z</time>
      </trkpt>
      <trkpt lat="49.891065" lon="7.841265">
        <ele>187.314398</ele>
        <time>2022-02-08T07:21:27.675Z</time>
      </trkpt>
      <trkpt lat="49.891132" lon="7.841382">
        <ele>187.150891</ele>
        <time>2022-02-08T07:21:34.676Z</time>
      </trkpt>
      <trkpt lat="49.891186" lon="7.841516">
        <ele>186.985801</ele>
        <time>2022-02-08T07:21:39.664Z</time>
      </trkpt>
      <trkpt lat="49.891276" lon="7.841531">
        <ele>186.839046</ele>
        <time>2022-02-08T07:21:49.669Z</time>
      </trkpt>
      <trkpt lat="49.891329" lon="7.841406">
        <ele>187.149731</ele>
        <time>2022-02-08T07:21:53.676Z</time>
      </trkpt>
      <trkpt lat="49.891395" lon="7.841291">
        <ele>187.473964</ele>
        <time>2022-02-08T07:21:59.666Z</time>
      </trkpt>
      <trkpt lat="49.891473" lon="7.841216">
        <ele>187.773791</ele>
        <time>2022-02-08T07:22:05.677Z</time>
      </trkpt>
      <trkpt lat="49.891541" lon="7.841121">
        <ele>188.072747</ele>
        <time>2022-02-08T07:22:13.675Z</time>
      </trkpt>
      <trkpt lat="49.891634" lon="7.841076">
        <ele>188.391072</ele>
        <time>2022-02-08T07:22:20.657Z</time>
      </trkpt>
      <trkpt lat="49.891676" lon="7.841223">
        <ele>188.729607</ele>
        <time>2022-02-08T07:22:25.664Z</time>
      </trkpt>
      <trkpt lat="49.891737" lon="7.841358">
        <ele>189.076745</ele>
        <time>2022-02-08T07:22:30.678Z</time>
      </trkpt>
      <trkpt lat="49.891797" lon="7.841484">
        <ele>189.406597</ele>
        <time>2022-02-08T07:22:37.674Z</time>
      </trkpt>
      <trkpt lat="49.891830" lon="7.841618">
        <ele>189.708603</ele>
        <time>2022-02-08T07:22:43.664Z</time>
      </trkpt>
      <trkpt lat="49.891854" lon="7.841766">
        <ele>190.029892</ele>
        <time>2022-02-08T07:22:48.673Z</time>
      </trkpt>
      <trkpt lat="49.891802" lon="7.841885">
        <ele>190.332602</ele>
        <time>2022-02-08T07:22:55.663Z</time>
      </trkpt>
      <trkpt lat="49.891726" lon="7.841973">
        <ele>190.642438</ele>
        <time>2022-02-08T07:23:00.679Z</time>
      </trkpt>
      <trkpt lat="49.891741" lon="7.842126">
        <ele>190.968243</ele>
        <time>2022-02-08T07:23:06.680Z</time>
      </trkpt>
      <trkpt lat="49.891808" lon="7.842243">
        <ele>191.297792</ele>
        <time>2022-02-08T07:23:12.676Z</time>
      </trkpt>
      <trkpt lat="49.891845" lon="7.842372">
        <ele>191.595062</ele>
        <time>2022-02-08T07:23:18.664Z</time>
      </trkpt>
      <trkpt lat="49.891781" lon="7.842478">
        <ele>191.900897</ele>
        <time>2022-02-08T07:23:26.683Z</time>
      </trkpt>
      <trkpt lat="49.891709" lon="7.842592">
        <ele>192.236982</ele>
        <time>2022-02-08T07:23:33.679Z</time>
      </trkpt>
      <trkpt lat="49.891639" lon="7.842706">
        <ele>192.568524</ele>
        <time>2022-02-08T07:23:40.679Z</time>
      </trkpt>
      <trkpt lat="49.891570" lon="7.842821">
        <ele>192.836417</ele>
        <time>2022-02-08T07:23:48.675Z</time>
      </trkpt>
      <trkpt lat="49.891532" lon="7.842966">
        <ele>193.053362</ele>
        <time>2022-02-08T07:23:54.667Z</time>
      </trkpt>
      <trkpt lat="49.891544" lon="7.843128">
        <ele>193.279357</ele>
        <time>2022-02-08T07:24:00.676Z</time>
      </trkpt>
      <trkpt lat="49.891566" lon="7.843279">
        <ele>193.493912</ele>
        <time>2022-02-08T07:24:06.667Z</time>
      </trkpt>
      <trkpt lat="49.891566" lon="7.843422">
        <ele>193.692095</ele>
        <time>2022-02-08T07:24:13.674Z</time>
      </trkpt>
      <trkpt lat="49.891564" lon="7.843572">
        <ele>193.900024</ele>
        <time>2022-02-08T07:24:19.675Z</time>
      </trkpt>
      <trkpt lat="49.891597" lon="7.843721">
        <ele>194.118384</ele>
        <time>2022-02-08T07:24:27.667Z</time>
      </trkpt>
      <trkpt lat="49.891592" lon="7.843888">
        <ele>194.350079</ele>
        <time>2022-02-08T07:24:34.672Z</time>
      </trkpt>
      <trkpt lat="49.891569" lon="7.844040">
        <ele>194.566467</ele>
        <time>2022-02-08T07:24:39.661Z</time>
      </trkpt>
      <trkpt lat="49.891536" lon="7.844188">
        <ele>194.783518</ele>
        <time>2022-02-08T07:24:45.672Z</time>
      </trkpt>
      <trkpt lat="49.891501" lon="7.844320">
        <ele>194.981345</ele>
        <time>2022-02-08T07:24:53.657Z</time>
      </trkpt>
      <trkpt lat="49.891489" lon="7.844468">
        <ele>195.188076</ele>
        <time>2022-02-08T07:25:01.671Z</time>
      </trkpt>
      <trkpt lat="49.891533" lon="7.844597">
        <ele>195.390367</ele>
        <time>2022-02-08T07:25:08.685Z</time>
      </trkpt>
      <trkpt lat="49.891567" lon="7.844727">
        <ele>195.584814</ele>
        <time>2022-02-08T07:25:13.682Z</time>
      </trkpt>
      <trkpt lat="49.891619" lon="7.844848">
        <ele>195.786394</ele>
        <time>2022-02-08T07:25:22.681Z</time>
      </trkpt>
      <trkpt lat="49.891565" lon="7.844964">
        <ele>195.984736</ele>
        <time>2022-02-08T07:25:34.671Z</time>
      </trkpt>
      <trkpt lat="49.891505" lon="7.845081">
        <ele>196.191986</ele>
        <time>2022-02-08T07:25:42.682Z</time>
      </trkpt>
      <trkpt lat="49.891559" lon="7.845214">
        <ele>196.409863</ele>
        <time>2022-02-08T07:25:49.687Z</time>
      </trkpt>
      <trkpt lat="49.891646" lon="7.845290">
        <ele>196.550455</ele>
        <time>2022-02-08T07:25:55.664Z</time>
      </trkpt>
      <trkpt lat="49.891728" lon="7.845367">
        <ele>196.376170</ele>
        <time>2022-02-08T07:26:02.676Z</time>
      </trkpt>
      <trkpt lat="49.891783" lon="7.845488">
        <ele>196.202677</ele>
        <time>2022-02-08T07:26:08.646Z</time>
      </trkpt>
      <trkpt lat="49.891870" lon="7.845531">
        <ele>196.036636</ele>
        <time>2022-02-08T07:26:23.651Z</time>
      </trkpt>
      <trkpt lat="49.891948" lon="7.845622">
        <ele>195.859191</ele>
        <time>2022-02-08T07:26:31.661Z</time>
      </trkpt>
      <trkpt lat="49.892023" lon="7.845740">
        <ele>195.664990</ele>
        <time>2022-02-08T07:26:41.677Z</time>
      </trkpt>
      <trkpt lat="49.892109" lon="7.845816">
        <ele>195.485025</ele>
        <time>2022-02-08T07:26:46.651Z</time>
      </trkpt>
      <trkpt lat="49.892198" lon="7.845845">
        <ele>195.319646</ele>
        <time>2022-02-08T07:26:53.669Z</time>
      </trkpt>
      <trkpt lat="49.892295" lon="7.845896">
        <ele>195.133403</ele>
        <time>2022-02-08T07:27:01.684Z</time>
      </trkpt>
      <trkpt lat="49.892360" lon="7.846014">
        <ele>194.951513</ele>
        <time>2022-02-08T07:27:07.668Z</time>
      </trkpt>
      <trkpt lat="49.892458" lon="7.846045">
        <ele>194.769632</ele>
        <time>2022-02-08T07:27:13.677Z</time>
      </trkpt>
      <trkpt lat="49.892549" lon="7.846065">
        <ele>194.602494</ele>
        <time>2022-02-08T07:27:20.673Z</time>
      </trkpt>
      <trkpt lat="49.892615" lon="7.845960">
        <ele>194.430628</ele>
        <time>2022-02-08T07:27:31.679Z</time>
      </trkpt>
      <trkpt lat="49.892619" lon="7.845812">
        <ele>194.257086</ele>
        <time>2022-02-08T07:27:36.662Z</time>
      </trkpt>
      <trkpt lat="49.892643" lon="7.845673">
        <ele>194.088493</ele>
        <time>2022-02-08T07:27:43.670Z</time>
      </trkpt>
      <trkpt lat="49.892685" lon="7.845530">
        <ele>193.904372</ele>
        <time>2022-02-08T07:27:50.664Z</time>
      </trkpt>
      <trkpt lat="49.892701" lon="7.845390">
        <ele>193.737794</ele>
        <time>2022-02-08T07:27:57.670Z</time>
      </trkpt>
      <trkpt lat="49.892730" lon="7.845245">
        <ele>193.559922</ele>
        <time>2022-02-08T07:28:04.673Z</time>
      </trkpt>
      <trkpt lat="49.892791" lon="7.845127">
        <ele>193.382674</ele>
        <time>2022-02-08T07:28:10.668Z</time>
      </trkpt>
      <trkpt lat="49.892838" lon="7.844988">
        <ele>193.348424</ele>
        <time>2022-02-08T07:28:17.661Z</time>
      </trkpt>
      <trkpt lat="49.892867" lon="7.844844">
        <ele>193.402206</ele>
        <time>2022-02-08T07:28:25.668Z</time>
      </trkpt>
      <trkpt lat="49.892909" lon="7.844703">
        <ele>193.457581</ele>
        <time>2022-02-08T07:28:32.671Z</time>
      </trkpt>
      <trkpt lat="49.892944" lon="7.844556">
        <ele>193.513447</ele>
        <time>2022-02-08T07:28:39.675Z</time>
      </trkpt>
      <trkpt lat="49.892990" lon="7.844420">
        <ele>193.568202</ele>
        <time>2022-02-08T07:28:45.666Z</time>
      </trkpt>
      <trkpt lat="49.893033" lon="7.844297">
        <ele>193.618088</ele>
        <time>2022-02-08T07:28:52.678Z</time>
      </trkpt>
      <trkpt lat="49.893069" lon="7.844166">
        <ele>193.668857</ele>
        <time>2022-02-08T07:29:00.675Z</time>
      </trkpt>
      <trkpt lat="49.893125" lon="7.844034">
        <ele>193.725197</ele>
        <time>2022-02-08T07:29:07.664Z</time>
      </trkpt>
      <trkpt lat="49.893184" lon="7.843927">
        <ele>193.775403</ele>
        <time>2022-02-08T07:29:13.676Z</time>
      </trkpt>
      <trkpt lat="49.893208" lon="7.843786">
        <ele>193.827390</ele>
        <time>2022-02-08T07:29:20.664Z</time>
      </trkpt>
      <trkpt lat="49.893260" lon="7.843672">
        <ele>193.877183</ele>
        <time>2022-02-08T07:29:28.664Z</time>
      </trkpt>
      <trkpt lat="49.893314" lon="7.843539">
        <ele>193.933223</ele>
        <time>2022-02-08T07:29:36.667Z</time>
      </trkpt>
      <trkpt lat="49.893352" lon="7.843413">
        <ele>193.982816</ele>
        <time>2022-02-08T07:29:42.663Z</time>
      </trkpt>
      <trkpt lat="49.893388" lon="7.843285">
        <ele>194.032603</ele>
        <time>2022-02-08T07:29:49.671Z</time>
      </trkpt>
      <trkpt lat="49.893428" lon="7.843150">
        <ele>194.085572</ele>
        <time>2022-02-08T07:29:56.668Z</time>
      </trkpt>
      <trkpt lat="49.893465" lon="7.843015">
        <ele>194.137869</ele>
        <time>2022-02-08T07:30:03.676Z</time>
      </trkpt>
      <trkpt lat="49.893504" lon="7.842880">
        <ele>194.190609</ele>
        <time>2022-02-08T07:30:11.674Z</time>
      </trkpt>
      <trkpt lat="49.893530" lon="7.842744">
        <ele>194.241178</ele>
        <time>2022-02-08T07:30:19.671Z</time>
      </trkpt>
      <trkpt lat="49.893582" lon="7.842620">
        <ele>194.293920</ele>
        <time>2022-02-08T07:30:26.671Z</time>
      </trkpt>
      <trkpt lat="49.893627" lon="7.842487">
        <ele>194.389554</ele>
        <time>2022-02-08T07:30:33.666Z</time>
      </trkpt>
      <trkpt lat="49.893663" lon="7.842339">
        <ele>194.507262</ele>
        <time>2022-02-08T07:30:41.674Z</time>
      </trkpt>
      <trkpt lat="49.893715" lon="7.842223">
        <ele>194.612411</ele>
        <time>2022-02-08T07:30:48.668Z</time>
      </trkpt>
      <trkpt lat="49.893742" lon="7.842088">
        <ele>194.717587</ele>
        <time>2022-02-08T07:30:55.668Z</time>
      </trkpt>
      <trkpt lat="49.893772" lon="7.841956">
        <ele>194.821734</ele>
        <time>2022-02-08T07:31:01.678Z</time>
      </trkpt>
      <trkpt lat="49.893805" lon="7.841809">
        <ele>194.937560</ele>
        <time>2022-02-08T07:31:08.672Z</time>
      </trkpt>
      <trkpt lat="49.893853" lon="7.841666">
        <ele>195.057535</ele>
        <time>2022-02-08T07:31:15.665Z</time>
      </trkpt>
      <trkpt lat="49.893903" lon="7.841538">
        <ele>195.168913</ele>
        <time>2022-02-08T07:31:22.678Z</time>
      </trkpt>
      <trkpt lat="49.893941" lon="7.841410">
        <ele>195.273778</ele>
        <time>2022-02-08T07:31:29.669Z</time>
      </trkpt>
      <trkpt lat="49.894006" lon="7.841298">
        <ele>195.385940</ele>
        <time>2022-02-08T07:31:37.663Z</time>
      </trkpt>
      <trkpt lat="49.894062" lon="7.841172">
        <ele>195.499836</ele>
        <time>2022-02-08T07:31:45.673Z</time>
      </trkpt>
      <trkpt lat="49.894111" lon="7.841039">
        <ele>195.613834</ele>
        <time>2022-02-08T07:31:53.678Z</time>
      </trkpt>
      <trkpt lat="49.894164" lon="7.840920">
        <ele>195.721475</ele>
        <time>2022-02-08T07:32:00.662Z</time>
      </trkpt>
      <trkpt lat="49.894215" lon="7.840790">
        <ele>195.834724</ele>
        <time>2022-02-08T07:32:07.675Z</time>
      </trkpt>
      <trkpt lat="49.894274" lon="7.840666">
        <ele>195.949422</ele>
        <time>2022-02-08T07:32:14.670Z</time>
      </trkpt>
      <trkpt lat="49.894319" lon="7.840532">
        <ele>196.061857</ele>
        <time>2022-02-08T07:32:21.681Z</time>
      </trkpt>
      <trkpt lat="49.894358" lon="7.840396">
        <ele>196.172619</ele>
        <time>2022-02-08T07:32:28.660Z</time>
      </trkpt>
      <trkpt lat="49.894420" lon="7.840292">
        <ele>196.278049</ele>
        <time>2022-02-08T07:32:35.671Z</time>
      </trkpt>
      <trkpt lat="49.894475" lon="7.840167">
        <ele>196.381743</ele>
        <time>2022-02-08T07:32:42.677Z</time>
      </trkpt>
      <trkpt lat="49.894516" lon="7.840034">
        <ele>196.274287</ele>
        <time>2022-02-08T07:32:50.660Z</time>
      </trkpt>
      <trkpt lat="49.894590" lon="7.839925">
        <ele>196.158878</ele>
        <time>2022-02-08T07:32:59.666Z</time>
      </trkpt>
      <trkpt lat="49.894656" lon="7.839821">
        <ele>196.052482</ele>
        <time>2022-02-08T07:33:06.688Z</time>
      </trkpt>
      <trkpt lat="49.894723" lon="7.839719">
        <ele>195.946316</ele>
        <time>2022-02-08T07:33:16.680Z</time>
      </trkpt>
      <trkpt lat="49.894774" lon="7.839600">
        <ele>195.842150</ele>
        <time>2022-02-08T07:33:24.668Z</time>
      </trkpt>
      <trkpt lat="49.894839" lon="7.839497">
        <ele>195.737068</ele>
        <time>2022-02-08T07:33:30.671Z</time>
      </trkpt>
      <trkpt lat="49.894902" lon="7.839392">
        <ele>195.632494</ele>
        <time>2022-02-08T07:33:36.669Z</time>
      </trkpt>
      <trkpt lat="49.894964" lon="7.839274">
        <ele>195.521520</ele>
        <time>2022-02-08T07:33:44.679Z</time>
      </trkpt>
      <trkpt lat="49.895039" lon="7.839184">
        <ele>195.414274</ele>
        <time>2022-02-08T07:33:52.692Z</time>
      </trkpt>
      <trkpt lat="49.895111" lon="7.839083">
        <ele>195.304488</ele>
        <time>2022-02-08T07:33:59.667Z</time>
      </trkpt>
      <trkpt lat="49.895182" lon="7.838998">
        <ele>195.203052</ele>
        <time>2022-02-08T07:34:06.676Z</time>
      </trkpt>
      <trkpt lat="49.895258" lon="7.838904">
        <ele>195.093117</ele>
        <time>2022-02-08T07:34:13.680Z</time>
      </trkpt>
      <trkpt lat="49.895325" lon="7.838806">
        <ele>194.988971</ele>
        <time>2022-02-08T07:34:20.686Z</time>
      </trkpt>
      <trkpt lat="49.895409" lon="7.838727">
        <ele>194.877860</ele>
        <time>2022-02-08T07:34:26.683Z</time>
      </trkpt>
      <trkpt lat="49.895488" lon="7.838655">
        <ele>194.774221</ele>
        <time>2022-02-08T07:34:32.685Z</time>
      </trkpt>
      <trkpt lat="49.895559" lon="7.838566">
        <ele>194.670979</ele>
        <time>2022-02-08T07:34:38.674Z</time>
      </trkpt>
      <trkpt lat="49.895636" lon="7.838459">
        <ele>194.554064</ele>
        <time>2022-02-08T07:34:45.671Z</time>
      </trkpt>
      <trkpt lat="49.895708" lon="7.838366">
        <ele>194.448099</ele>
        <time>2022-02-08T07:34:52.691Z</time>
      </trkpt>
      <trkpt lat="49.895803" lon="7.838316">
        <ele>194.361922</ele>
        <time>2022-02-08T07:34:59.666Z</time>
      </trkpt>
      <trkpt lat="49.895890" lon="7.838255">
        <ele>194.430472</ele>
        <time>2022-02-08T07:35:06.679Z</time>
      </trkpt>
      <trkpt lat="49.895983" lon="7.838199">
        <ele>194.502101</ele>
        <time>2022-02-08T07:35:13.685Z</time>
      </trkpt>
      <trkpt lat="49.896060" lon="7.838125">
        <ele>194.567132</ele>
        <time>2022-02-08T07:35:19.681Z</time>
      </trkpt>
      <trkpt lat="49.896150" lon="7.838068">
        <ele>194.636931</ele>
        <time>2022-02-08T07:35:26.675Z</time>
      </trkpt>
      <trkpt lat="49.896232" lon="7.837985">
        <ele>194.707224</ele>
        <time>2022-02-08T07:35:34.676Z</time>
      </trkpt>
      <trkpt lat="49.896321" lon="7.837901">
        <ele>194.782019</ele>
        <time>2022-02-08T07:35:42.671Z</time>
      </trkpt>
      <trkpt lat="49.896408" lon="7.837822">
        <ele>194.854394</ele>
        <time>2022-02-08T07:35:49.676Z</time>
      </trkpt>
      <trkpt lat="49.896484" lon="7.837739">
        <ele>194.921121</ele>
        <time>2022-02-08T07:35:55.685Z</time>
      </trkpt>
      <trkpt lat="49.896566" lon="7.837661">
        <ele>194.990178</ele>
        <time>2022-02-08T07:36:01.682Z</time>
      </trkpt>
      <trkpt lat="49.896650" lon="7.837606">
        <ele>195.055643</ele>
        <time>2022-02-08T07:36:07.661Z</time>
      </trkpt>
      <trkpt lat="49.896748" lon="7.837585">
        <ele>195.126682</ele>
        <time>2022-02-08T07:36:16.673Z</time>
      </trkpt>
      <trkpt lat="49.896843" lon="7.837576">
        <ele>195.195027</ele>
        <time>2022-02-08T07:36:22.685Z</time>
      </trkpt>
      <trkpt lat="49.896943" lon="7.837548">
        <ele>195.267994</ele>
        <time>2022-02-08T07:36:28.675Z</time>
      </trkpt>
      <trkpt lat="49.897035" lon="7.837494">
        <ele>195.338622</ele>
        <time>2022-02-08T07:36:36.684Z</time>
      </trkpt>
      <trkpt lat="49.897111" lon="7.837405">
        <ele>195.406982</ele>
        <time>2022-02-08T07:36:44.681Z</time>
      </trkpt>
      <trkpt lat="49.897196" lon="7.837320">
        <ele>195.479586</ele>
        <time>2022-02-08T07:36:51.685Z</time>
      </trkpt>
      <trkpt lat="49.897292" lon="7.837285">
        <ele>195.550398</ele>
        <time>2022-02-08T07:36:57.669Z</time>
      </trkpt>
      <trkpt lat="49.897375" lon="7.837230">
        <ele>195.615201</ele>
        <time>2022-02-08T07:37:04.668Z</time>
      </trkpt>
      <trkpt lat="49.897438" lon="7.837116">
        <ele>195.642892</ele>
        <time>2022-02-08T07:37:11.669Z</time>
      </trkpt>
      <trkpt lat="49.897526" lon="7.837054">
        <ele>195.642892</ele>
        <time>2022-02-08T07:37:18.668Z</time>
      </trkpt>
      <trkpt lat="49.897618" lon="7.837014">
        <ele>195.642892</ele>
        <time>2022-02-08T07:37:24.685Z</time>
      </trkpt>
      <trkpt lat="49.897710" lon="7.836989">
        <ele>195.642892</ele>
        <time>2022-02-08T07:37:30.666Z</time>
      </trkpt>
      <trkpt lat="49.897796" lon="7.836943">
        <ele>195.642892</ele>
        <time>2022-02-08T07:37:37.661Z</time>
      </trkpt>
      <trkpt lat="49.897884" lon="7.836860">
        <ele>195.642892</ele>
        <time>2022-02-08T07:37:44.676Z</time>
      </trkpt>
      <trkpt lat="49.897954" lon="7.836746">
        <ele>195.642892</ele>
        <time>2022-02-08T07:37:51.676Z</time>
      </trkpt>
      <trkpt lat="49.898034" lon="7.836683">
        <ele>195.642892</ele>
        <time>2022-02-08T07:37:57.680Z</time>
      </trkpt>
      <trkpt lat="49.897998" lon="7.836548">
        <ele>195.642892</ele>
        <time>2022-02-08T07:38:08.678Z</time>
      </trkpt>
      <trkpt lat="49.897919" lon="7.836469">
        <ele>195.642892</ele>
        <time>2022-02-08T07:38:15.676Z</time>
      </trkpt>
      <trkpt lat="49.897894" lon="7.836329">
        <ele>195.642892</ele>
        <time>2022-02-08T07:38:25.689Z</time>
      </trkpt>
      <trkpt lat="49.897826" lon="7.836227">
        <ele>195.642892</ele>
        <time>2022-02-08T07:38:32.680Z</time>
      </trkpt>
      <trkpt lat="49.897727" lon="7.836246">
        <ele>195.642892</ele>
        <time>2022-02-08T07:38:39.677Z</time>
      </trkpt>
      <trkpt lat="49.897643" lon="7.836302">
        <ele>195.642892</ele>
        <time>2022-02-08T07:38:45.674Z</time>
      </trkpt>
      <trkpt lat="49.897574" lon="7.836420">
        <ele>195.642892</ele>
        <time>2022-02-08T07:38:51.689Z</time>
      </trkpt>
      <trkpt lat="49.897558" lon="7.836558">
        <ele>195.642892</ele>
        <time>2022-02-08T07:38:56.677Z</time>
      </trkpt>
      <trkpt lat="49.897492" lon="7.836678">
        <ele>195.642892</ele>
        <time>2022-02-08T07:39:04.685Z</time>
      </trkpt>
      <trkpt lat="49.897402" lon="7.836766">
        <ele>195.642892</ele>
        <time>2022-02-08T07:39:10.653Z</time>
      </trkpt>
      <trkpt lat="49.897389" lon="7.836799">
        <ele>195.642892</ele>
        <time>2022-02-08T07:39:19.334Z</time>
      </trkpt>
    </trkseg>
  </trk>
</gpx>